Tiempo atmosférico en la estación meteorológica de Alforja, Tarragona (406 m.)



Fecha
DESCASC
Temp. máxima en grados centígrados (hora)
DESCASC
Temp. mínima en grados centígrados (hora)
DESCASC
Temp. media en grados centígrados
DESCASC
Racha de viento máxima en m/sg (hora)
DESCASC
Velocidad máxima media en intervalos de 10 minutos(hora)
DESCASC
Precipitaciones diarias en mm
DESCASC
Precipitaciones de 00:00 a 06:00 en mm
DESCASC
Precipitaciones de 06:00 a 12:00 en mm
DESCASC
Precipitaciones de 12:00 a 18:00 en mm
DESCASC
Precipitaciones de 18:00 a 24:00 en mm
DESCASC
22-11-2020 15.7 (12:50) 2.9 (03:40) 9.3 6.67 (13:10) 3.06 (05:00) 0 0 0 0 0
21-11-2020 15.6 (13:50) 3.5 (23:40) 9.6 10.28 (00:20) 6.11 (00:10) 0 0 0 0 0
20-11-2020 14.3 (16:00) 6.2 (08:10) 10.3 16.39 (04:00) 9.17 (03:30) 0 0 0 0 0
19-11-2020 18.3 (14:10) 8.1 (00:00) 13.2 18.33 (22:30) 9.44 (22:30) 0 0 0 0 0
18-11-2020 19.5 (14:10) 6 (00:00) 12.8 5.28 (23:30) 3.61 (23:30) 0 0 0 0 0
17-11-2020 -- (--) -- (--) -- -- (--) -- (--) -- 0 -- 0 0
16-11-2020 19.4 (12:10) 11.1 (00:00) 15.3 13.33 (04:40) 7.22 (02:40) 0 0 0 0 0
15-11-2020 20.8 (14:40) 9.2 (00:00) 15 9.44 (21:50) 5.28 (11:40) 0 0 0 0 0
14-11-2020 17.6 (13:20) 8.1 (00:00) 12.9 4.44 (21:30) 2.5 (22:10) 0 0 0 0 0
13-11-2020 18.1 (14:10) 8.1 (00:00) 13.1 3.89 (15:40) 2.78 (07:50) 0 0 0 0 0
12-11-2020 19 (12:20) 7.9 (00:00) 13.5 7.5 (07:10) 4.72 (06:50) 0 0 0 0 0
11-11-2020 19.7 (14:00) 8.2 (00:00) 14 6.39 (10:10) 3.89 (09:30) 0 0 0 0 0
10-11-2020 19.1 (14:10) 8.7 (00:00) 13.9 10.28 (10:30) 5.28 (10:40) 0 0 0 0 0
09-11-2020 19.9 (12:50) 6.3 (00:00) 13.1 5.28 (03:30) 3.89 (03:00) 0 0 0 0 0
08-11-2020 20.4 (13:10) 7.7 (00:00) 14 6.39 (04:30) 3.89 (04:10) 0 0 0 0 0
07-11-2020 16.1 (07:10) 9.7 (00:00) 12.9 15.28 (09:30) 5.83 (07:00) 13.6 0 13.6 0 0
06-11-2020 16.2 (12:50) 13.6 (00:00) 14.9 10 (16:30) 4.17 (19:00) 8.6 8.4 0 0.2 0
05-11-2020 14.8 (14:00) 5.4 (00:00) 10.1 10.83 (22:10) 4.17 (22:00) 2.6 0 0 0.2 2.4
04-11-2020 10.2 (15:30) 7.1 (00:00) 8.6 10 (04:40) 6.39 (04:40) 23.8 12.8 10.6 0.4 0
03-11-2020 17.2 (10:30) 9.9 (00:00) 13.6 10.83 (19:10) 6.67 (17:20) 2.8 0 0 0 2.8
02-11-2020 22.5 (14:30) 8.1 (00:00) 15.3 4.17 (14:10) 2.78 (14:10) 0 0 0 0 0
01-11-2020 25 (15:20) 9.9 (00:00) 17.4 9.17 (10:40) 5 (11:20) 0 0 0 0 0
31-10-2020 25.8 (14:40) 8.1 (00:00) 16.9 6.67 (13:10) 3.89 (13:10) 0 0 0 0 0
30-10-2020 23.4 (14:40) 8.1 (00:00) 15.8 5.56 (22:50) 3.61 (22:10) 0 0 0 0 0
29-10-2020 -- (--) -- (--) -- -- (--) -- (--) -- -- 0 0 0
28-10-2020 21.6 (13:30) 9.5 (00:00) 15.6 11.67 (03:10) 7.22 (03:10) 0 0 0 0 0
27-10-2020 17.2 (15:50) 8.4 (00:00) 12.8 11.94 (21:50) 6.67 (22:50) 0 0 0 0 0
26-10-2020 15.9 (14:10) 8.9 (00:00) 12.4 17.78 (11:30) 9.72 (11:50) 0.2 0.2 0 0 0
25-10-2020 21.3 (14:20) 10 (00:00) 15.6 13.33 (12:40) 7.5 (12:40) 0 0 0 0 0

Gráficas

Temp. máximas Temp. mínimas Temp. medias Precipitaciones Rachas de viento máximas Velocidades máximas media en intervalos de 10 minutos

Datos horarios

Fecha y hora oficial Temperatura (ºC) Velocidad del viento (km/h) Dirección del viento Racha (km/h) Dirección de racha Precipitación (mm) Presión (hPa) Tendencia (hPa) Humedad (%)
2020-11-23 23:00:00 5.6 10 Oeste 15 Sudoeste 0 -- -- 81
2020-11-23 22:00:00 6 11 Oeste 15 Oeste 0 -- -- 79
2020-11-23 21:00:00 6.7 10 Oeste 15 Oeste 0 -- -- 79
2020-11-23 20:00:00 5.8 8 Oeste 15 Oeste 0 -- -- 83
2020-11-23 19:00:00 7 8 Sudoeste 17 Sudoeste 0 -- -- 78
2020-11-23 18:00:00 8 9 Sudoeste 17 Sudoeste 0 -- -- 75
2020-11-23 17:00:00 11.5 8 Oeste 19 Oeste 0 -- -- 64
2020-11-23 16:00:00 14.5 10 Oeste 19 Sudoeste 0 -- -- 53
2020-11-23 15:00:00 15.3 10 Sudoeste 18 Sudoeste 0 -- -- 49
2020-11-23 14:00:00 15.5 9 Sudoeste 22 Sudoeste 0 -- -- 48
2020-11-23 13:00:00 14.9 10 Sudoeste 19 Sudoeste 0 -- -- 47
2020-11-23 12:00:00 14.6 10 Oeste 20 Sudoeste 0 -- -- 63
2020-11-23 11:00:00 13.8 7 Oeste 16 Noroeste 0 -- -- 67
2020-11-23 10:00:00 11.9 9 Oeste 18 Oeste 0 -- -- 76
2020-11-23 09:00:00 7.4 6 Oeste 15 Oeste 0 -- -- 99
2020-11-23 08:00:00 5.3 11 Oeste 15 Sudoeste 0 -- -- 98
2020-11-23 07:00:00 5.2 12 Sudoeste 14 Sudoeste 0 -- -- 98
2020-11-23 06:00:00 5.7 10 Sudoeste 20 Sudoeste 0 -- -- 98
2020-11-23 05:00:00 5.5 7 Oeste 13 Sudoeste 0 -- -- 99
2020-11-23 04:00:00 5.1 8 Oeste 14 Oeste 0 -- -- 99
2020-11-23 03:00:00 3.6 6 Oeste 10 Oeste 0 -- -- 99
2020-11-23 02:00:00 3.2 6 Oeste 9 Oeste 0 -- -- 99
2020-11-23 01:00:00 4 4 Oeste 9 Oeste 0 -- -- 99
2020-11-23 00:00:00 4.1 4 Oeste 10 Oeste 0 -- -- 98
2020-11-22 23:00:00 4.7 3 Oeste 10 Oeste 0 -- -- 98
2020-11-22 22:00:00 4.8 5 Oeste 10 Oeste 0 -- -- 97
2020-11-22 21:00:00 4.8 5 Oeste 8 Oeste 0 -- -- 97
2020-11-22 20:00:00 5.5 5 Oeste 9 Oeste 0 -- -- 96
2020-11-22 19:00:00 5.9 4 Oeste 9 Sudoeste 0 -- -- 93
2020-11-22 18:00:00 8.8 4 Oeste 8 Oeste 0 -- -- 85
2020-11-22 17:00:00 12 3 Este 9 Este 0 -- -- 77
2020-11-22 16:00:00 14.4 6 Sudeste 13 Este 0 -- -- 69
2020-11-22 15:00:00 15.1 8 Este 14 Sudeste 0 -- -- 67
2020-11-22 14:00:00 15.2 6 Este 24 Noroeste 0 -- -- 67
2020-11-22 13:00:00 15.7 6 Oeste 14 Oeste 0 -- -- 63
2020-11-22 12:00:00 13.7 7 Sudoeste 14 Sudoeste 0 -- -- 64
2020-11-22 11:00:00 11.9 8 Sur 12 Sudoeste 0 -- -- 73
2020-11-22 10:00:00 11.6 5 Sudoeste 9 Sudoeste 0 -- -- 79
2020-11-22 09:00:00 6.5 4 Oeste 13 Oeste 0 -- -- 100
2020-11-22 08:00:00 3.7 9 Oeste 13 Sudoeste 0 -- -- 98
2020-11-22 07:00:00 3.5 5 Oeste 12 Oeste 0 -- -- 96
2020-11-22 06:00:00 3.1 3 Oeste 14 Sudoeste 0 -- -- 94
2020-11-22 05:00:00 4 11 Oeste 15 Oeste 0 -- -- 97
2020-11-22 04:00:00 3.5 9 Oeste 13 Sudoeste 0 -- -- 97
2020-11-22 03:00:00 3.2 4 Oeste 12 Oeste 0 -- -- 96
2020-11-22 02:00:00 4.2 7 Oeste 14 Oeste 0 -- -- 96
2020-11-22 01:00:00 4.7 8 Oeste 15 Sudoeste 0 -- -- 97
2020-11-22 00:00:00 3.9 8 Oeste 11 Sudoeste 0 -- -- 97
2020-11-21 23:00:00 3.6 3 Oeste 12 Sudoeste 0 -- -- 96
2020-11-21 22:00:00 4.5 8 Oeste 12 Oeste 0 -- -- 95
2020-11-21 21:00:00 3.9 5 Oeste 13 Oeste 0 -- -- 95
2020-11-21 20:00:00 3.9 5 Oeste 10 Oeste 0 -- -- 92
2020-11-21 19:00:00 4.5 5 Oeste 12 Oeste 0 -- -- 87
2020-11-21 18:00:00 6.5 3 Oeste 12 Oeste 0 -- -- 76
2020-11-21 17:00:00 11.2 4 Nordeste 9 Nordeste 0 -- -- 59
2020-11-21 16:00:00 14.9 5 Sur 16 Sur 0 -- -- 37
2020-11-21 15:00:00 15.4 9 Sudoeste 17 Sur 0 -- -- 35
2020-11-21 14:00:00 15.6 8 Sudoeste 15 Sudoeste 0 -- -- 35
2020-11-21 13:00:00 14.9 9 Sudoeste 15 Sudoeste 0 -- -- 38
2020-11-21 12:00:00 13.8 12 Sudoeste 21 Sudoeste 0 -- -- 40
2020-11-21 11:00:00 13.1 12 Oeste 25 Oeste 0 -- -- 40
2020-11-21 10:00:00 10.8 18 Oeste 31 Oeste 0 -- -- 43
2020-11-21 09:00:00 8.6 14 Oeste 30 Oeste 0 -- -- 48
2020-11-21 08:00:00 6.5 13 Oeste 31 Sudoeste 0 -- -- 55
2020-11-21 07:00:00 6.8 17 Oeste 31 Oeste 0 -- -- 54
2020-11-21 06:00:00 7 19 Oeste 33 Oeste 0 -- -- 52
2020-11-21 05:00:00 6.5 17 Oeste 34 Noroeste 0 -- -- 54
2020-11-21 04:00:00 6.5 17 Oeste 30 Sudoeste 0 -- -- 54
2020-11-21 03:00:00 6.9 15 Oeste 37 Oeste 0 -- -- 53
2020-11-21 02:00:00 6.8 17 Oeste 34 Noroeste 0 -- -- 57
2020-11-21 01:00:00 7.3 20 Oeste 37 Sudoeste 0 -- -- 56
2020-11-21 00:00:00 7.5 21 Oeste 42 Oeste 0 -- -- 56
2020-11-20 23:00:00 7.7 23 Oeste 39 Oeste 0 -- -- 55
2020-11-20 22:00:00 8.6 21 Oeste 45 Oeste 0 -- -- 53
2020-11-20 21:00:00 9.4 24 Oeste 48 Oeste 0 -- -- 54
2020-11-20 20:00:00 10.6 26 Oeste 46 Noroeste 0 -- -- 53
2020-11-20 19:00:00 11.2 26 Noroeste 47 Oeste 0 -- -- 53
2020-11-20 18:00:00 11.8 26 Oeste 43 Noroeste 0 -- -- 54
2020-11-20 17:00:00 12.7 25 Noroeste 45 Oeste 0 -- -- 54
2020-11-20 16:00:00 14.3 27 Oeste 47 Oeste 0 -- -- 51
2020-11-20 15:00:00 14 24 Oeste 44 Oeste 0 -- -- 57
2020-11-20 14:00:00 13.3 21 Oeste 48 Oeste 0 -- -- 57
2020-11-20 13:00:00 12.3 24 Oeste 44 Oeste 0 -- -- 59
2020-11-20 12:00:00 11.5 23 Oeste 57 Oeste 0 -- -- 61
2020-11-20 11:00:00 10.5 25 Oeste 45 Oeste 0 -- -- 64
2020-11-20 10:00:00 9.2 20 Oeste 44 Oeste 0 -- -- 70
2020-11-20 09:00:00 7.1 20 Oeste 35 Oeste 0 -- -- 78
2020-11-20 08:00:00 6.4 12 Oeste 36 Oeste 0 -- -- 82
2020-11-20 07:00:00 6.7 19 Oeste 39 Oeste 0 -- -- 81
2020-11-20 06:00:00 7 15 Oeste 42 Oeste 0 -- -- 81
2020-11-20 05:00:00 7.4 21 Oeste 53 Oeste 0 -- -- 80
2020-11-20 04:00:00 7.9 32 Oeste 59 Noroeste 0 -- -- 77
2020-11-20 03:00:00 8.3 27 Oeste 51 Oeste 0 -- -- 79
2020-11-20 02:00:00 8.8 29 Oeste 52 Oeste 0 -- -- 80
2020-11-20 01:00:00 9.3 24 Oeste 58 Oeste 0 -- -- 77
2020-11-20 00:00:00 10.2 32 Oeste 56 Oeste 0 -- -- 76
2020-11-19 23:00:00 10.9 28 Oeste 66 Oeste 0 -- -- 77
2020-11-19 22:00:00 12.1 32 Oeste 53 Oeste 0 -- -- 77
2020-11-19 21:00:00 13.4 32 Oeste 56 Oeste 0 -- -- 73
2020-11-19 20:00:00 14.7 28 Oeste 46 Oeste 0 -- -- 73
2020-11-19 19:00:00 15.4 26 Oeste 40 Oeste 0 -- -- 78
2020-11-19 18:00:00 14.7 25 Oeste 42 Oeste 0 -- -- 81
2020-11-19 17:00:00 15.6 29 Oeste 48 Oeste 0 -- -- 73
2020-11-19 16:00:00 16.6 28 Oeste 42 Oeste 0 -- -- 69
2020-11-19 15:00:00 17.7 17 Oeste 34 Oeste 0 -- -- 65
2020-11-19 14:00:00 17.9 19 Oeste 37 Noroeste 0 -- -- 64
2020-11-19 13:00:00 16.6 23 Oeste 38 Oeste 0 -- -- 67
2020-11-19 12:00:00 15.9 18 Oeste 40 Sudoeste 0 -- -- 72
2020-11-19 11:00:00 14.6 21 Sudoeste 36 Sudoeste 0 -- -- 76
2020-11-19 10:00:00 12.6 18 Oeste 45 Oeste 0 -- -- 82
2020-11-19 09:00:00 11.2 20 Oeste 45 Oeste 0 -- -- 83
2020-11-19 08:00:00 10.5 15 Oeste 23 Sudoeste -- -- -- 87
2020-11-19 07:00:00 10.3 10 Oeste 18 Oeste 0 -- -- 89
2020-11-19 06:00:00 9.9 9 Oeste 16 Sudoeste 0 -- -- 95
2020-11-19 05:00:00 11.1 12 Sudoeste 25 Oeste 0 -- -- 96
2020-11-19 04:00:00 8.4 4 Oeste 10 Oeste 0 -- -- 99
2020-11-19 03:00:00 8.5 3 Oeste 9 Oeste 0 -- -- 99
2020-11-19 02:00:00 8.4 3 Norte 7 Oeste 0 -- -- 98
2020-11-19 01:00:00 8.5 4 Noroeste 9 Sudoeste 0 -- -- 97
2020-11-19 00:00:00 9.6 3 Oeste 19 Sudoeste 0 -- -- 96
2020-11-18 23:00:00 10.3 6 Oeste 10 Oeste 0 -- -- 96
2020-11-18 22:00:00 12.3 6 Sudoeste 8 Oeste 0 -- -- 94
2020-11-18 21:00:00 13.5 0 Calma 6 Nordeste 0 -- -- 95
2020-11-18 20:00:00 13.8 3 Este 6 Este 0 -- -- 94
2020-11-18 19:00:00 14.1 2 Este 8 Sudeste 0 -- -- 92
2020-11-18 18:00:00 14.3 3 Este 7 Nordeste 0 -- -- 91
2020-11-18 17:00:00 14.8 4 Nordeste 10 Este 0 -- -- 87
2020-11-18 16:00:00 16.2 5 Este 13 Este 0 -- -- 82
2020-11-18 15:00:00 18.1 5 Este 14 Este 0 -- -- 74
2020-11-18 14:00:00 19.3 6 Sudeste 12 Este 0 -- -- 69
2020-11-18 13:00:00 18.7 6 Este 14 Este 0 -- -- 69
2020-11-18 12:00:00 17.3 6 Este 12 Este 0 -- -- 72
2020-11-18 11:00:00 16.4 3 Sudeste 8 Sudeste 0 -- -- 77
2020-11-18 10:00:00 13.9 2 Nordeste 6 Nordeste 0 -- -- 94
2020-11-18 09:00:00 9.9 4 Oeste 9 Oeste 0 -- -- 100
2020-11-18 08:00:00 -- -- -- -- -- -- -- -- --
2020-11-18 07:00:00 -- -- -- -- -- -- -- -- --
2020-11-18 06:00:00 -- -- -- -- -- -- -- -- --
2020-11-18 05:00:00 -- -- -- -- -- -- -- -- --
2020-11-18 04:00:00 -- -- -- -- -- -- -- -- --
2020-11-18 03:00:00 -- -- -- -- -- -- -- -- --
2020-11-18 02:00:00 -- -- -- -- -- -- -- -- --
2020-11-18 01:00:00 -- -- -- -- -- -- -- -- --
2020-11-18 00:00:00 -- -- -- -- -- -- -- -- --
2020-11-17 23:00:00 -- -- -- -- -- -- -- -- --
2020-11-17 22:00:00 -- -- -- -- -- -- -- -- --
2020-11-17 21:00:00 -- -- -- -- -- -- -- -- --
2020-11-17 20:00:00 -- -- -- -- -- -- -- -- --
2020-11-17 19:00:00 -- -- -- -- -- -- -- -- --
2020-11-17 18:00:00 -- -- -- -- -- -- -- -- --
2020-11-17 17:00:00 -- -- -- -- -- -- -- -- --
2020-11-17 16:00:00 -- -- -- -- -- -- -- -- --
2020-11-17 15:00:00 -- -- -- -- -- -- -- -- --
2020-11-17 14:00:00 -- -- -- -- -- -- -- -- --
2020-11-17 13:00:00 -- -- -- -- -- -- -- -- --
2020-11-17 12:00:00 -- -- -- -- -- -- -- -- --
2020-11-17 11:00:00 -- -- -- -- -- -- -- -- --
2020-11-17 10:00:00 -- -- -- -- -- -- -- -- --
2020-11-17 09:00:00 -- -- -- -- -- -- -- -- --
2020-11-17 08:00:00 9.2 15 Sudoeste 25 Sudoeste 0 -- -- 77
2020-11-17 07:00:00 9.5 9 Oeste 29 Oeste 0 -- -- 76
2020-11-17 06:00:00 9.7 13 Oeste 30 Sudoeste 0 -- -- 77
2020-11-17 05:00:00 9.8 7 Oeste 35 Oeste 0 -- -- 76
2020-11-17 04:00:00 9.7 17 Oeste 34 Oeste 0 -- -- 79
2020-11-17 03:00:00 9.6 9 Oeste 23 Oeste 0 -- -- 79
2020-11-17 02:00:00 10.1 11 Oeste 24 Noroeste 0 -- -- 79
2020-11-17 01:00:00 10 6 Noroeste 25 Oeste 0 -- -- 79
2020-11-17 00:00:00 11.3 7 Oeste 34 Oeste 0 -- -- 75
2020-11-16 23:00:00 12.1 22 Oeste 39 Oeste 0 -- -- 73
2020-11-16 22:00:00 12.4 23 Oeste 38 Oeste 0 -- -- 72
2020-11-16 21:00:00 12.8 20 Oeste 40 Noroeste 0 -- -- 71
2020-11-16 20:00:00 12.8 22 Oeste 35 Oeste 0 -- -- 71
2020-11-16 19:00:00 11.1 6 Oeste 13 Oeste 0 -- -- 80
2020-11-16 18:00:00 13.8 7 Oeste 19 Oeste 0 -- -- 69
2020-11-16 17:00:00 15.8 11 Oeste 23 Oeste 0 -- -- 63
2020-11-16 16:00:00 16.5 9 Oeste 25 Oeste 0 -- -- 62
2020-11-16 15:00:00 17.8 11 Oeste 31 Oeste 0 -- -- 56
2020-11-16 14:00:00 18.5 13 Sudoeste 31 Oeste 0 -- -- 57
2020-11-16 13:00:00 19 12 Sudoeste 22 Noroeste 0 -- -- 55
2020-11-16 12:00:00 19.3 8 Sudoeste 17 Sudoeste 0 -- -- 59
2020-11-16 11:00:00 17.3 4 Sudeste 13 Sudeste 0 -- -- 78
2020-11-16 10:00:00 16.3 4 Este 12 Sudoeste 0 -- -- 80
2020-11-16 09:00:00 13.8 8 Oeste 20 Oeste 0 -- -- 88
2020-11-16 08:00:00 14.8 9 Oeste 23 Sudoeste 0 -- -- 82
2020-11-16 07:00:00 16.4 11 Oeste 38 Oeste 0 -- -- 76
2020-11-16 06:00:00 17.5 17 Oeste 48 Oeste 0 -- -- 72
2020-11-16 05:00:00 17.7 26 Oeste 48 Oeste 0 -- -- 71
2020-11-16 04:00:00 17.4 17 Oeste 36 Oeste 0 -- -- 72
2020-11-16 03:00:00 17.5 23 Oeste 44 Oeste 0 -- -- 72
2020-11-16 02:00:00 18.2 22 Oeste 40 Oeste 0 -- -- 68
2020-11-16 01:00:00 18.3 20 Oeste 38 Oeste 0 -- -- 67
2020-11-16 00:00:00 17.8 15 Oeste 32 Oeste 0 -- -- 70
2020-11-15 23:00:00 17.5 14 Oeste 28 Noroeste 0 -- -- 71
2020-11-15 22:00:00 17.1 14 Oeste 34 Oeste 0 -- -- 73
2020-11-15 21:00:00 16.7 12 Noroeste 19 Oeste 0 -- -- 74
2020-11-15 20:00:00 16.7 9 Oeste 17 Oeste 0 -- -- 71
2020-11-15 19:00:00 17.2 10 Oeste 20 Oeste 0 -- -- 69
2020-11-15 18:00:00 17.3 13 Oeste 20 Oeste 0 -- -- 69
2020-11-15 17:00:00 18.1 9 Noroeste 24 Oeste 0 -- -- 67
2020-11-15 16:00:00 19.8 14 Oeste 29 Oeste 0 -- -- 60
2020-11-15 15:00:00 20.5 16 Oeste 33 Oeste 0 -- -- 56
2020-11-15 14:00:00 20.4 15 Sudoeste 30 Sudoeste 0 -- -- 57
2020-11-15 13:00:00 20.1 13 Oeste 29 Oeste 0 -- -- 58
2020-11-15 12:00:00 19.5 13 Oeste 33 Oeste 0 -- -- 61
2020-11-15 11:00:00 18.5 16 Oeste 29 Oeste 0 -- -- 64
2020-11-15 10:00:00 17 12 Oeste 26 Noroeste 0 -- -- 70
2020-11-15 09:00:00 14 10 Oeste 32 Oeste 0 -- -- 81
2020-11-15 08:00:00 12.9 16 Oeste 27 Noroeste 0 -- -- 87
2020-11-15 07:00:00 9.3 3 Sudoeste 11 Sudoeste 0 -- -- 96
2020-11-15 06:00:00 10.1 8 Sudoeste 14 Oeste 0 -- -- 95
2020-11-15 05:00:00 10.1 9 Oeste 14 Oeste 0 -- -- 97
2020-11-15 04:00:00 9.9 2 Noroeste 4 Noroeste 0 -- -- 97
2020-11-15 03:00:00 -- -- -- -- -- -- -- -- --
2020-11-15 02:00:00 -- -- -- -- -- -- -- -- --
2020-11-15 01:00:00 -- -- -- -- -- -- -- -- --
2020-11-15 00:00:00 -- -- -- -- -- -- -- -- --
2020-11-14 23:00:00 -- -- -- -- -- -- -- -- --
2020-11-14 22:00:00 -- -- -- -- -- -- -- -- --
2020-11-14 21:00:00 -- -- -- -- -- -- -- -- --
2020-11-14 20:00:00 -- -- -- -- -- -- -- -- --
2020-11-14 19:00:00 -- -- -- -- -- -- -- -- --
2020-11-14 18:00:00 -- -- -- -- -- -- -- -- --
2020-11-14 17:00:00 -- -- -- -- -- -- -- -- --
2020-11-14 16:00:00 -- -- -- -- -- -- -- -- --
2020-11-14 15:00:00 -- -- -- -- -- -- -- -- --
2020-11-14 14:00:00 -- -- -- -- -- -- -- -- --
2020-11-14 13:00:00 -- -- -- -- -- -- -- -- --
2020-11-14 12:00:00 -- -- -- -- -- -- -- -- --
2020-11-14 11:00:00 -- -- -- -- -- -- -- -- --
2020-11-14 10:00:00 -- -- -- -- -- -- -- -- --
2020-11-14 09:00:00 -- -- -- -- -- -- -- -- --
2020-11-14 08:00:00 -- -- -- -- -- -- -- -- --
2020-11-14 07:00:00 -- -- -- -- -- -- -- -- --
2020-11-14 06:00:00 -- -- -- -- -- -- -- -- --
2020-11-14 05:00:00 -- -- -- -- -- -- -- -- --
2020-11-14 04:00:00 -- -- -- -- -- -- -- -- --
2020-11-14 03:00:00 -- -- -- -- -- -- -- -- --
2020-11-14 02:00:00 -- -- -- -- -- -- -- -- --
2020-11-14 01:00:00 -- -- -- -- -- -- -- -- --
2020-11-14 00:00:00 -- -- -- -- -- -- -- -- --
2020-11-13 23:00:00 -- -- -- -- -- -- -- -- --
2020-11-13 22:00:00 -- -- -- -- -- -- -- -- --
2020-11-13 21:00:00 -- -- -- -- -- -- -- -- --
2020-11-13 20:00:00 -- -- -- -- -- -- -- -- --
2020-11-13 19:00:00 -- -- -- -- -- -- -- -- --
2020-11-13 18:00:00 -- -- -- -- -- -- -- -- --
2020-11-13 17:00:00 -- -- -- -- -- -- -- -- --
2020-11-13 16:00:00 -- -- -- -- -- -- -- -- --
2020-11-13 15:00:00 -- -- -- -- -- -- -- -- --
2020-11-13 14:00:00 -- -- -- -- -- -- -- -- --
2020-11-13 13:00:00 -- -- -- -- -- -- -- -- --
2020-11-13 12:00:00 -- -- -- -- -- -- -- -- --
2020-11-13 11:00:00 -- -- -- -- -- -- -- -- --
2020-11-13 10:00:00 -- -- -- -- -- -- -- -- --
2020-11-13 09:00:00 -- -- -- -- -- -- -- -- --
2020-11-13 08:00:00 -- -- -- -- -- -- -- -- --
2020-11-13 07:00:00 -- -- -- -- -- -- -- -- --
2020-11-13 06:00:00 -- -- -- -- -- -- -- -- --
2020-11-13 05:00:00 -- -- -- -- -- -- -- -- --
2020-11-13 04:00:00 -- -- -- -- -- -- -- -- --
2020-11-13 03:00:00 -- -- -- -- -- -- -- -- --
2020-11-13 02:00:00 -- -- -- -- -- -- -- -- --
2020-11-13 01:00:00 8.8 5 Oeste 8 Sudoeste 0 -- -- 98
2020-11-13 00:00:00 8.6 3 Oeste 9 Oeste 0 -- -- 98
2020-11-12 23:00:00 9.1 6 Oeste 10 Oeste 0 -- -- 98
2020-11-12 22:00:00 8.5 0 Calma 6 Oeste 0 -- -- 97
2020-11-12 21:00:00 9.2 3 Oeste 8 Oeste 0 -- -- 97
2020-11-12 20:00:00 9.3 4 Oeste 7 Oeste 0 -- -- 97
2020-11-12 19:00:00 10 0 Calma 8 Sudoeste 0 -- -- 93
2020-11-12 18:00:00 11.9 2 Oeste 6 Oeste 0 -- -- 88
2020-11-12 17:00:00 15 0 Calma 9 Este 0 -- -- 81
2020-11-12 16:00:00 16.4 4 Este 10 Sur 0 -- -- 73
2020-11-12 15:00:00 17.8 5 Sudoeste 13 Sur 0 -- -- 58
2020-11-12 14:00:00 18.3 4 Este 18 Este 0 -- -- 68
2020-11-12 13:00:00 18.9 8 Sudeste 15 Este 0 -- -- 64
2020-11-12 12:00:00 18.6 6 Este 14 Este 0 -- -- 66
2020-11-12 11:00:00 17.3 6 Este 12 Este 0 -- -- 70
2020-11-12 10:00:00 13.7 5 Sudoeste 12 Noroeste 0 -- -- 83
2020-11-12 09:00:00 11.4 4 Sudoeste 6 Norte 0 -- -- 93
2020-11-12 08:00:00 11.3 5 Norte 27 Sudoeste 0 -- -- 89
2020-11-12 07:00:00 12.1 16 Sudoeste 26 Sudoeste 0 -- -- 85
2020-11-12 06:00:00 11.3 13 Sudoeste 24 Sudoeste 0 -- -- 93
2020-11-12 05:00:00 10.4 6 Sudoeste 14 Oeste 0 -- -- 98
2020-11-12 04:00:00 9.9 6 Sudoeste 15 Oeste 0 -- -- 99
2020-11-12 03:00:00 8.9 9 Sudoeste 13 Oeste 0 -- -- 100
2020-11-12 02:00:00 8.8 8 Oeste 12 Sudoeste 0 -- -- 100
2020-11-12 01:00:00 8.3 3 Oeste 4 Noroeste 0 -- -- 99
2020-11-12 00:00:00 8.6 0 Calma 9 Oeste 0 -- -- 98
2020-11-11 23:00:00 9.4 5 Oeste 9 Sudoeste 0 -- -- 99
2020-11-11 22:00:00 8.2 0 Calma 5 Oeste 0 -- -- 98
2020-11-11 21:00:00 8.6 3 Oeste 10 Oeste 0 -- -- 97
2020-11-11 20:00:00 9 2 Noroeste 8 Sudoeste 0 -- -- 96
2020-11-11 19:00:00 9.6 2 Oeste 8 Oeste 0 -- -- 94
2020-11-11 18:00:00 11.6 5 Oeste 7 Oeste 0 -- -- 89
2020-11-11 17:00:00 15.4 5 Este 13 Este 0 -- -- 79
2020-11-11 16:00:00 17.4 6 Este 15 Sudeste 0 -- -- 69
2020-11-11 15:00:00 16.9 7 Este 15 Sudeste 0 -- -- 69
2020-11-11 14:00:00 19.7 7 Sudoeste 17 Sudoeste 0 -- -- 52
2020-11-11 13:00:00 19 9 Sudoeste 19 Sudoeste 0 -- -- 57
2020-11-11 12:00:00 18 9 Sudoeste 19 Sudoeste 0 -- -- 59
2020-11-11 11:00:00 17.6 9 Sudoeste 23 Oeste 0 -- -- 64
2020-11-11 10:00:00 15.7 12 Oeste 22 Oeste 0 -- -- 71
2020-11-11 09:00:00 12.6 7 Sudoeste 15 Sudoeste 0 -- -- 88
2020-11-11 08:00:00 9.2 8 Sudoeste 14 Oeste 0 -- -- 96
2020-11-11 07:00:00 8.7 9 Oeste 13 Oeste 0 -- -- 97
2020-11-11 06:00:00 8.9 10 Sudoeste 14 Sudoeste 0 -- -- 96
2020-11-11 05:00:00 8.9 9 Oeste 14 Sudoeste 0 -- -- 95
2020-11-11 04:00:00 9 8 Oeste 13 Oeste 0 -- -- 95
2020-11-11 03:00:00 -- -- -- -- -- -- -- -- --
2020-11-11 02:00:00 -- -- -- -- -- -- -- -- --
2020-11-11 01:00:00 -- -- -- -- -- -- -- -- --
2020-11-11 00:00:00 -- -- -- -- -- -- -- -- --
2020-11-10 23:00:00 -- -- -- -- -- -- -- -- --
2020-11-10 22:00:00 -- -- -- -- -- -- -- -- --
2020-11-10 21:00:00 -- -- -- -- -- -- -- -- --
2020-11-10 20:00:00 -- -- -- -- -- -- -- -- --
2020-11-10 19:00:00 -- -- -- -- -- -- -- -- --
2020-11-10 18:00:00 -- -- -- -- -- -- -- -- --
2020-11-10 17:00:00 -- -- -- -- -- -- -- -- --
2020-11-10 16:00:00 -- -- -- -- -- -- -- -- --
2020-11-10 15:00:00 -- -- -- -- -- -- -- -- --
2020-11-10 14:00:00 -- -- -- -- -- -- -- -- --
2020-11-10 13:00:00 18.4 13 Oeste 22 Oeste 0 -- -- 59
2020-11-10 12:00:00 17.2 13 Oeste 28 Oeste 0 -- -- 64
2020-11-10 11:00:00 15.6 14 Oeste 37 Oeste 0 -- -- 70
2020-11-10 10:00:00 14.4 15 Oeste 32 Oeste 0 -- -- 74
2020-11-10 09:00:00 12.9 14 Noroeste 31 Noroeste 0 -- -- 81
2020-11-10 08:00:00 11.5 17 Oeste 28 Oeste 0 -- -- 84
2020-11-10 07:00:00 11.4 17 Oeste 26 Oeste 0 -- -- 85
2020-11-10 06:00:00 12.1 14 Oeste 28 Noroeste 0 -- -- 81
2020-11-10 05:00:00 13.3 16 Noroeste 30 Noroeste 0 -- -- 73
2020-11-10 04:00:00 12.9 14 Noroeste 26 Oeste 0 -- -- 77
2020-11-10 03:00:00 12.7 16 Oeste 29 Oeste 0 -- -- 81
2020-11-10 02:00:00 12.3 10 Oeste 19 Noroeste 0 -- -- 85
2020-11-10 01:00:00 11.8 9 Oeste 19 Noroeste 0 -- -- 86
2020-11-10 00:00:00 12.5 8 Oeste 19 Noroeste 0 -- -- 84
2020-11-09 23:00:00 11.2 6 Oeste 15 Oeste 0 -- -- 84
2020-11-09 22:00:00 11.7 9 Oeste 13 Oeste 0 -- -- 81
2020-11-09 21:00:00 12.5 7 Noroeste 16 Oeste 0 -- -- 77
2020-11-09 20:00:00 11.3 6 Oeste 13 Sudoeste 0 -- -- 84
2020-11-09 19:00:00 11.1 6 Sudoeste 12 Oeste 0 -- -- 85
2020-11-09 18:00:00 13 4 Oeste 11 Oeste 0 -- -- 87
2020-11-09 17:00:00 16.4 0 Calma 12 Este 0 -- -- 82
2020-11-09 16:00:00 18 6 Este 14 Este 0 -- -- 76
2020-11-09 15:00:00 18.4 7 Nordeste 19 Este 0 -- -- 74
2020-11-09 14:00:00 19.3 8 Nordeste 14 Este 0 -- -- 67
2020-11-09 13:00:00 19.5 3 Sur 16 Oeste 0 -- -- 58
2020-11-09 12:00:00 17.9 3 Este 7 Sudeste 0 -- -- 62
2020-11-09 11:00:00 16.4 3 Este 6 Este 0 -- -- 68
2020-11-09 10:00:00 15.2 3 Sudoeste 8 Oeste 0 -- -- 71
2020-11-09 09:00:00 11.6 5 Oeste 11 Oeste 0 -- -- 90
2020-11-09 08:00:00 7.6 6 Sudoeste 10 Oeste 0 -- -- 98
2020-11-09 07:00:00 6.5 6 Oeste 9 Oeste 0 -- -- 98
2020-11-09 06:00:00 6.7 3 Noroeste 7 Oeste 0 -- -- 95
2020-11-09 05:00:00 6.7 4 Noroeste 6 Noroeste 0 -- -- 93
2020-11-09 04:00:00 8.3 4 Oeste 19 Sudoeste 0 -- -- 87
2020-11-09 03:00:00 -- -- -- -- -- -- -- -- --
2020-11-09 02:00:00 -- -- -- -- -- -- -- -- --
2020-11-09 01:00:00 -- -- -- -- -- -- -- -- --
2020-11-09 00:00:00 -- -- -- -- -- -- -- -- --
2020-11-08 23:00:00 -- -- -- -- -- -- -- -- --
2020-11-08 22:00:00 -- -- -- -- -- -- -- -- --
2020-11-08 21:00:00 -- -- -- -- -- -- -- -- --
2020-11-08 20:00:00 -- -- -- -- -- -- -- -- --
2020-11-08 19:00:00 -- -- -- -- -- -- -- -- --
2020-11-08 18:00:00 -- -- -- -- -- -- -- -- --
2020-11-08 17:00:00 -- -- -- -- -- -- -- -- --
2020-11-08 16:00:00 -- -- -- -- -- -- -- -- --
2020-11-08 15:00:00 -- -- -- -- -- -- -- -- --
2020-11-08 14:00:00 -- -- -- -- -- -- -- -- --
2020-11-08 13:00:00 -- -- -- -- -- -- -- -- --
2020-11-08 12:00:00 -- -- -- -- -- -- -- -- --
2020-11-08 11:00:00 -- -- -- -- -- -- -- -- --
2020-11-08 10:00:00 -- -- -- -- -- -- -- -- --
2020-11-08 09:00:00 -- -- -- -- -- -- -- -- --
2020-11-08 08:00:00 -- -- -- -- -- -- -- -- --
2020-11-08 07:00:00 -- -- -- -- -- -- -- -- --
2020-11-08 06:00:00 -- -- -- -- -- -- -- -- --
2020-11-08 05:00:00 -- -- -- -- -- -- -- -- --
2020-11-08 04:00:00 -- -- -- -- -- -- -- -- --
2020-11-08 03:00:00 -- -- -- -- -- -- -- -- --
2020-11-08 02:00:00 -- -- -- -- -- -- -- -- --
2020-11-08 01:00:00 -- -- -- -- -- -- -- -- --
2020-11-08 00:00:00 -- -- -- -- -- -- -- -- --
2020-11-07 23:00:00 -- -- -- -- -- -- -- -- --
2020-11-07 22:00:00 -- -- -- -- -- -- -- -- --
2020-11-07 21:00:00 -- -- -- -- -- -- -- -- --
2020-11-07 20:00:00 -- -- -- -- -- -- -- -- --
2020-11-07 19:00:00 -- -- -- -- -- -- -- -- --
2020-11-07 18:00:00 -- -- -- -- -- -- -- -- --
2020-11-07 17:00:00 -- -- -- -- -- -- -- -- --
2020-11-07 16:00:00 -- -- -- -- -- -- -- -- --
2020-11-07 15:00:00 -- -- -- -- -- -- -- -- --
2020-11-07 14:00:00 -- -- -- -- -- -- -- -- --
2020-11-07 13:00:00 -- -- -- -- -- -- -- -- --
2020-11-07 12:00:00 -- -- -- -- -- -- -- -- --
2020-11-07 11:00:00 -- -- -- -- -- -- -- -- --
2020-11-07 10:00:00 15.6 17 Este 55 Este 2.4 -- -- 99
2020-11-07 09:00:00 15.7 16 Este 36 Nordeste 2.6 -- -- 98
2020-11-07 08:00:00 15.5 16 Este 46 Sudeste 0.6 -- -- 96
2020-11-07 07:00:00 16 21 Sudeste 48 Sudeste 0 -- -- 91
2020-11-07 06:00:00 15.8 20 Este 44 Este 0 -- -- 90
2020-11-07 05:00:00 15.7 14 Este 40 Este 0 -- -- 90
2020-11-07 04:00:00 15.7 16 Este 37 Sudeste 0 -- -- 89
2020-11-07 03:00:00 15.7 13 Este 35 Este -- -- -- 89
2020-11-07 02:00:00 15.7 15 Este 33 Nordeste 0 -- -- 91
2020-11-07 01:00:00 15.8 15 Este 32 Este 0 -- -- 91
2020-11-07 00:00:00 15.8 14 Este 30 Este 0 -- -- 92
2020-11-06 23:00:00 15.7 14 Este 30 Este 0 -- -- 91
2020-11-06 22:00:00 15.6 13 Este 31 Sudeste 0 -- -- 92
2020-11-06 21:00:00 15.6 12 Este 29 Este 0 -- -- 92
2020-11-06 20:00:00 15.6 13 Este 31 Este 0 -- -- 92
2020-11-06 19:00:00 15.5 15 Este 31 Este 0 -- -- 92
2020-11-06 18:00:00 15.6 12 Este 30 Este 0.2 -- -- 92
2020-11-06 17:00:00 15.7 15 Este 36 Este 0 -- -- 91
2020-11-06 16:00:00 15.9 14 Este 31 Este 0 -- -- 90
2020-11-06 15:00:00 16 14 Este 33 Este 0 -- -- 90
2020-11-06 14:00:00 16 13 Este 32 Este 0 -- -- 89
2020-11-06 13:00:00 16.2 12 Este 26 Este 0 -- -- 88
2020-11-06 12:00:00 15.8 13 Este 26 Sudeste 0 -- -- 88
2020-11-06 11:00:00 15.2 12 Este 27 Este 0 -- -- 89
2020-11-06 10:00:00 15.3 13 Este 29 Este 0 -- -- 87
2020-11-06 09:00:00 14.8 14 Este 35 Este 0 -- -- 90
2020-11-06 08:00:00 14.1 12 Este 28 Este 0 -- -- 93
2020-11-06 07:00:00 14 13 Este 26 Este 0 -- -- 94
2020-11-06 06:00:00 14.2 10 Este 26 Este 0 -- -- 94
2020-11-06 05:00:00 14.3 10 Este 29 Este 0 -- -- 96
2020-11-06 04:00:00 14.2 9 Este 23 Nordeste 0.2 -- -- 97
2020-11-06 03:00:00 14.1 10 Este 30 Este 0.2 -- -- 97
2020-11-06 02:00:00 13.9 12 Este 31 Este 3.4 -- -- 98
2020-11-06 01:00:00 13.6 10 Este 26 Este 4.6 -- -- 97
2020-11-06 00:00:00 13.9 9 Este 28 Este 2.2 -- -- 94
2020-11-05 23:00:00 14.3 11 Este 39 Nordeste 0.2 -- -- 90
2020-11-05 22:00:00 14.4 15 Este 33 Este 0 -- -- 88
2020-11-05 21:00:00 14.6 14 Este 30 Este 0 -- -- 84
2020-11-05 20:00:00 14.4 12 Este 31 Este 0 -- -- 84
2020-11-05 19:00:00 14 14 Este 28 Este 0 -- -- 85
2020-11-05 18:00:00 13.8 13 Este 24 Este 0 -- -- 85
2020-11-05 17:00:00 14.2 11 Este 28 Este 0 -- -- 82
2020-11-05 16:00:00 14.6 11 Este 25 Sudeste 0.2 -- -- 80
2020-11-05 15:00:00 14.4 8 Este 23 Este 0 -- -- 82
2020-11-05 14:00:00 14.8 9 Este 21 Sudeste 0 -- -- 80
2020-11-05 13:00:00 14.5 11 Este 24 Este 0 -- -- 80
2020-11-05 12:00:00 14.2 12 Este 27 Este 0 -- -- 81
2020-11-05 11:00:00 13.6 12 Este 24 Nordeste 0 -- -- 83
2020-11-05 10:00:00 13.6 10 Este 25 Este 0 -- -- 82
2020-11-05 09:00:00 12.8 8 Sudeste 16 Este 0 -- -- 89
2020-11-05 08:00:00 9.9 4 Nordeste 13 Este 0 -- -- 99
2020-11-05 07:00:00 7.9 3 Nordeste 10 Este 0 -- -- 100
2020-11-05 06:00:00 6.7 0 Calma 11 Nordeste 0 -- -- 100
2020-11-05 05:00:00 5.4 2 Noroeste 12 Oeste 0 -- -- 99
2020-11-05 04:00:00 5.8 5 Oeste 10 Oeste 0 -- -- 98
2020-11-05 03:00:00 6.3 3 Noroeste 5 Sudoeste 0 -- -- 97
2020-11-05 02:00:00 7.9 2 Oeste 5 Noroeste 0 -- -- 97
2020-11-05 01:00:00 9.2 3 Oeste 10 Oeste 0 -- -- 97
2020-11-05 00:00:00 9.4 9 Oeste 13 Oeste 0 -- -- 98
2020-11-04 23:00:00 9.4 6 Oeste 8 Oeste 0 -- -- 98
2020-11-04 22:00:00 9.1 2 Este 6 Este 0 -- -- 98
2020-11-04 21:00:00 8.6 3 Sudeste 7 Norte 0 -- -- 98
2020-11-04 20:00:00 8.6 0 Calma 6 Oeste 0 -- -- 97
2020-11-04 19:00:00 8.7 2 Noroeste 12 Oeste 0 -- -- 96
2020-11-04 18:00:00 9.8 5 Oeste 12 Oeste 0 -- -- 96
2020-11-04 17:00:00 9.8 8 Sudoeste 14 Oeste 0 -- -- 95
2020-11-04 16:00:00 10 9 Oeste 17 Oeste 0 -- -- 94
2020-11-04 15:00:00 9.8 8 Oeste 22 Sudoeste 0.2 -- -- 96
2020-11-04 14:00:00 8.6 15 Sudoeste 24 Noroeste 0 -- -- 94
2020-11-04 13:00:00 8.5 11 Sudoeste 24 Oeste 0.2 -- -- 96
2020-11-04 12:00:00 7.7 16 Sudoeste 31 Sudoeste 0.6 -- -- 96
2020-11-04 11:00:00 7.6 17 Sudoeste 29 Sudoeste 0.6 -- -- 96
2020-11-04 10:00:00 7.4 15 Oeste 35 Oeste 0.8 -- -- 96
2020-11-04 09:00:00 7.8 11 Oeste 19 Sudoeste 3 -- -- 97
2020-11-04 08:00:00 7.5 13 Sudoeste 35 Noroeste 3.8 -- -- 97
2020-11-04 07:00:00 7.2 20 Noroeste 36 Oeste 1.8 -- -- 97
2020-11-04 06:00:00 7.3 16 Oeste 36 Oeste 2.6 -- -- 96
2020-11-04 05:00:00 7.4 21 Oeste 36 Oeste 1.8 -- -- 95
2020-11-04 04:00:00 7.9 21 Oeste 32 Oeste 2 -- -- 96
2020-11-04 03:00:00 8.3 19 Oeste 32 Oeste 2.2 -- -- 96
2020-11-04 02:00:00 8.6 18 Oeste 35 Sudoeste 2 -- -- 96
2020-11-04 01:00:00 9.1 19 Oeste 35 Oeste 2.2 -- -- 95
2020-11-04 00:00:00 9.9 19 Oeste 34 Oeste 0.2 -- -- 94
2020-11-03 23:00:00 10.2 17 Oeste 33 Oeste 1.8 -- -- 94
2020-11-03 22:00:00 10.5 19 Oeste 34 Oeste 0.6 -- -- 93
2020-11-03 21:00:00 10.7 19 Oeste 35 Oeste 0.2 -- -- 90
2020-11-03 20:00:00 11.6 19 Oeste 39 Oeste 0 -- -- 84
2020-11-03 19:00:00 11.9 21 Oeste 38 Oeste 0 -- -- 84
2020-11-03 18:00:00 12.2 20 Oeste 37 Oeste 0 -- -- 86
2020-11-03 17:00:00 13.4 22 Oeste 35 Oeste 0 -- -- 80
2020-11-03 16:00:00 14.9 15 Oeste 38 Oeste 0 -- -- 76
2020-11-03 15:00:00 15.2 19 Oeste 34 Oeste 0 -- -- 75
2020-11-03 14:00:00 15.5 18 Oeste 30 Sudoeste 0 -- -- 76
2020-11-03 13:00:00 15.7 12 Oeste 22 Oeste 0 -- -- 78
2020-11-03 12:00:00 15.5 13 Sudoeste 23 Sudoeste 0 -- -- 81
2020-11-03 11:00:00 16.8 8 Oeste 15 Noroeste 0 -- -- 77
2020-11-03 10:00:00 16.5 0 Calma 5 Sudoeste 0 -- -- 87
2020-11-03 09:00:00 14.4 0 Calma 7 Sudoeste 0 -- -- 99
2020-11-03 08:00:00 12.4 0 Calma 10 Oeste 0 -- -- 99
2020-11-03 07:00:00 11.5 4 Oeste 8 Oeste 0 -- -- 98
2020-11-03 06:00:00 12.9 0 Calma 6 Oeste 0 -- -- 98
2020-11-03 05:00:00 13.2 3 Noroeste 5 Oeste 0 -- -- 98
2020-11-03 04:00:00 13.8 2 Noroeste 4 Oeste 0 -- -- 99
2020-11-03 03:00:00 13.9 3 Oeste 5 Oeste 0 -- -- 99
2020-11-03 02:00:00 13.5 4 Oeste 6 Oeste 0 -- -- 99
2020-11-03 01:00:00 13.1 5 Oeste 9 Sudoeste 0 -- -- 99
2020-11-03 00:00:00 12.6 3 Noroeste 7 Oeste 0 -- -- 98
2020-11-02 23:00:00 11 4 Nordeste 5 Nordeste 0 -- -- 98
2020-11-02 22:00:00 10.6 0 Calma 5 Sudoeste 0 -- -- 96
2020-11-02 21:00:00 11.9 2 Oeste 5 Oeste 0 -- -- 96
2020-11-02 20:00:00 11.7 0 Calma 8 Oeste 0 -- -- 94
2020-11-02 19:00:00 13 0 Calma 7 Norte 0 -- -- 90
2020-11-02 18:00:00 15.9 4 Nordeste 9 Este 0 -- -- 88
2020-11-02 17:00:00 19.2 4 Este 12 Este 0 -- -- 76
2020-11-02 16:00:00 21.2 6 Sudeste 15 Este 0 -- -- 69
2020-11-02 15:00:00 22 8 Este 15 Este 0 -- -- 66
2020-11-02 14:00:00 22.4 9 Este 15 Este 0 -- -- 65
2020-11-02 13:00:00 21.5 8 Este 15 Este 0 -- -- 67
2020-11-02 12:00:00 20.4 6 Este 12 Este 0 -- -- 69
2020-11-02 11:00:00 15.5 3 Este 12 Este 0 -- -- 89
2020-11-02 10:00:00 14.9 3 Sudeste 8 Este 0 -- -- 88
2020-11-02 09:00:00 13.4 2 Sudeste 5 Sudeste 0 -- -- 79
2020-11-02 08:00:00 8.8 3 Oeste 6 Sudoeste 0 -- -- 90
2020-11-02 07:00:00 8.2 4 Noroeste 5 Noroeste 0 -- -- 90
2020-11-02 06:00:00 8.7 3 Noroeste 6 Noroeste 0 -- -- 90
2020-11-02 05:00:00 8.7 0 Calma 5 Noroeste 0 -- -- 89
2020-11-02 04:00:00 9 0 Calma 5 Noroeste 0 -- -- 90
2020-11-02 03:00:00 10 3 Noroeste 5 Norte 0 -- -- 86
2020-11-02 02:00:00 10.1 0 Calma 6 Noroeste 0 -- -- 83
2020-11-02 01:00:00 10.1 0 Calma 7 Oeste 0 -- -- 84
2020-11-02 00:00:00 10.8 5 Oeste 8 Oeste 0 -- -- 84
2020-11-01 23:00:00 10.8 0 Calma 5 Oeste 0 -- -- 84
2020-11-01 22:00:00 11.2 2 Norte 8 Oeste 0 -- -- 83
2020-11-01 21:00:00 11.5 0 Calma 10 Oeste 0 -- -- 82
2020-11-01 20:00:00 12.9 9 Oeste 12 Oeste 0 -- -- 78
2020-11-01 19:00:00 13.6 5 Oeste 10 Sudoeste 0 -- -- 82
2020-11-01 18:00:00 16.7 6 Oeste 12 Este 0 -- -- 72
2020-11-01 17:00:00 22.9 5 Oeste 17 Sudoeste 0 -- -- 42
2020-11-01 16:00:00 24.4 8 Sudoeste 22 Sudoeste 0 -- -- 40
2020-11-01 15:00:00 24.8 13 Sudoeste 28 Sudoeste 0 -- -- 37
2020-11-01 14:00:00 24.8 14 Sudoeste 27 Sudoeste 0 -- -- 39
2020-11-01 13:00:00 23.8 14 Oeste 27 Sudoeste 0 -- -- 43
2020-11-01 12:00:00 23 16 Oeste 33 Oeste 0 -- -- 46
2020-11-01 11:00:00 21.9 18 Oeste 33 Oeste 0 -- -- 48
2020-11-01 10:00:00 20.1 17 Oeste 30 Oeste 0 -- -- 51
2020-11-01 09:00:00 18.9 15 Oeste 26 Oeste 0 -- -- 53
2020-11-01 08:00:00 16.3 13 Noroeste 22 Oeste 0 -- -- 58
2020-11-01 07:00:00 12.7 7 Sudoeste 15 Oeste 0 -- -- 70
2020-11-01 06:00:00 14.5 12 Oeste 23 Oeste 0 -- -- 63
2020-11-01 05:00:00 15.5 12 Oeste 22 Oeste 0 -- -- 60
2020-11-01 04:00:00 10.2 4 Oeste 7 Oeste 0 -- -- 80
2020-11-01 03:00:00 10.4 0 Calma 8 Oeste 0 -- -- 79
2020-11-01 02:00:00 10.8 4 Oeste 9 Sudoeste 0 -- -- 78
2020-11-01 01:00:00 10.9 4 Noroeste 8 Sudoeste 0 -- -- 77
2020-11-01 00:00:00 12.5 3 Oeste 12 Oeste 0 -- -- 71
2020-10-31 23:00:00 15.3 2 Este 20 Oeste 0 -- -- 62
2020-10-31 22:00:00 15 11 Oeste 17 Sudoeste 0 -- -- 59
2020-10-31 21:00:00 16.7 10 Oeste 17 Oeste 0 -- -- 53
2020-10-31 20:00:00 13.1 0 Calma 14 Noroeste 0 -- -- 73
2020-10-31 19:00:00 12.9 2 Noroeste 10 Oeste 0 -- -- 74
2020-10-31 18:00:00 15.6 4 Oeste 8 Oeste 0 -- -- 74
2020-10-31 17:00:00 20.4 4 Este 12 Sudeste 0 -- -- 61
2020-10-31 16:00:00 22.1 9 Este 16 Sudeste 0 -- -- 54
2020-10-31 15:00:00 24.4 6 Este 21 Oeste 0 -- -- 49
2020-10-31 14:00:00 25 13 Oeste 24 Oeste 0 -- -- 40
2020-10-31 13:00:00 24.5 13 Oeste 23 Oeste 0 -- -- 41
2020-10-31 12:00:00 23.4 5 Sudeste 13 Sudeste 0 -- -- 44
2020-10-31 11:00:00 21.7 6 Nordeste 13 Nordeste 0 -- -- 43
2020-10-31 10:00:00 20.4 3 Este 6 Sudeste 0 -- -- 45
2020-10-31 09:00:00 15.3 0 Calma 4 Oeste 0 -- -- 60
2020-10-31 08:00:00 9.5 0 Calma 10 Oeste 0 -- -- 79
2020-10-31 07:00:00 8.1 4 Oeste 9 Oeste 0 -- -- 76
2020-10-31 06:00:00 11.1 4 Oeste 18 Sudoeste 0 -- -- 71
2020-10-31 05:00:00 10.5 9 Oeste 13 Oeste 0 -- -- 73
2020-10-31 04:00:00 10.5 5 Oeste 13 Sudoeste 0 -- -- 72
2020-10-31 03:00:00 10.6 7 Oeste 11 Oeste 0 -- -- 71
2020-10-31 02:00:00 10.9 7 Oeste 14 Oeste 0 -- -- 73
2020-10-31 01:00:00 12.5 6 Oeste 17 Oeste 0 -- -- 74
2020-10-31 00:00:00 13 8 Noroeste 17 Sudoeste 0 -- -- 77
2020-10-30 23:00:00 13.4 10 Oeste 20 Sudoeste 0 -- -- 78
2020-10-30 22:00:00 11.6 10 Oeste 15 Sudoeste 0 -- -- 89
2020-10-30 21:00:00 10.8 3 Oeste 8 Oeste 0 -- -- 93
2020-10-30 20:00:00 11.2 2 Oeste 8 Oeste 0 -- -- 91
2020-10-30 19:00:00 12.8 6 Oeste 10 Oeste 0 -- -- 88
2020-10-30 18:00:00 15.9 2 Oeste 9 Oeste 0 -- -- 76
2020-10-30 17:00:00 20.4 4 Este 11 Este 0 -- -- 63
2020-10-30 16:00:00 21.8 7 Este 15 Este 0 -- -- 59
2020-10-30 15:00:00 23.1 7 Este 14 Este 0 -- -- 56
2020-10-30 14:00:00 -- -- -- -- -- -- -- -- --
2020-10-30 13:00:00 -- -- -- -- -- -- -- -- --
2020-10-30 12:00:00 -- -- -- -- -- -- -- -- --
2020-10-30 11:00:00 -- -- -- -- -- -- -- -- --
2020-10-30 10:00:00 -- -- -- -- -- -- -- -- --
2020-10-30 09:00:00 -- -- -- -- -- -- -- -- --
2020-10-30 08:00:00 -- -- -- -- -- -- -- -- --
2020-10-30 07:00:00 -- -- -- -- -- -- -- -- --
2020-10-30 06:00:00 -- -- -- -- -- -- -- -- --
2020-10-30 05:00:00 -- -- -- -- -- -- -- -- --
2020-10-30 04:00:00 -- -- -- -- -- -- -- -- --
2020-10-30 03:00:00 -- -- -- -- -- -- -- -- --
2020-10-30 02:00:00 -- -- -- -- -- -- -- -- --
2020-10-30 01:00:00 -- -- -- -- -- -- -- -- --
2020-10-30 00:00:00 -- -- -- -- -- -- -- -- --
2020-10-29 23:00:00 -- -- -- -- -- -- -- -- --
2020-10-29 22:00:00 -- -- -- -- -- -- -- -- --
2020-10-29 21:00:00 -- -- -- -- -- -- -- -- --
2020-10-29 20:00:00 -- -- -- -- -- -- -- -- --
2020-10-29 19:00:00 -- -- -- -- -- -- -- -- --
2020-10-29 18:00:00 -- -- -- -- -- -- -- -- --
2020-10-29 17:00:00 -- -- -- -- -- -- -- -- --
2020-10-29 16:00:00 -- -- -- -- -- -- -- -- --
2020-10-29 15:00:00 -- -- -- -- -- -- -- -- --
2020-10-29 14:00:00 -- -- -- -- -- -- -- -- --
2020-10-29 13:00:00 -- -- -- -- -- -- -- -- --
2020-10-29 12:00:00 -- -- -- -- -- -- -- -- --
2020-10-29 11:00:00 -- -- -- -- -- -- -- -- --
2020-10-29 10:00:00 -- -- -- -- -- -- -- -- --
2020-10-29 09:00:00 -- -- -- -- -- -- -- -- --
2020-10-29 08:00:00 -- -- -- -- -- -- -- -- --
2020-10-29 07:00:00 -- -- -- -- -- -- -- -- --
2020-10-29 06:00:00 -- -- -- -- -- -- -- -- --
2020-10-29 05:00:00 10.7 7 Oeste 14 Sudoeste 0 -- -- 87
2020-10-29 04:00:00 10.2 9 Oeste 12 Sudoeste 0 -- -- 91
2020-10-29 03:00:00 8.9 4 Oeste 9 Noroeste 0 -- -- 92
2020-10-29 02:00:00 9.3 6 Oeste 11 Oeste 0 -- -- 90
2020-10-29 01:00:00 10.3 6 Oeste 13 Oeste 0 -- -- 85
2020-10-29 00:00:00 9.5 3 Oeste 10 Oeste 0 -- -- 89
2020-10-28 23:00:00 9.9 5 Oeste 13 Oeste 0 -- -- 88
2020-10-28 22:00:00 10.2 5 Oeste 11 Oeste 0 -- -- 89
2020-10-28 21:00:00 11.2 3 Norte 7 Este 0 -- -- 86
2020-10-28 20:00:00 14.1 3 Norte 18 Oeste 0 -- -- 73
2020-10-28 19:00:00 15.6 7 Oeste 18 Noroeste 0 -- -- 67
2020-10-28 18:00:00 16.9 7 Oeste 24 Oeste 0 -- -- 62
2020-10-28 17:00:00 19.5 9 Oeste 25 Oeste 0 -- -- 55
2020-10-28 16:00:00 19.7 13 Oeste 29 Oeste 0 -- -- 53
2020-10-28 15:00:00 19.2 16 Oeste 27 Oeste 0 -- -- 54
2020-10-28 14:00:00 20.8 14 Oeste 27 Sudoeste 0 -- -- 50
2020-10-28 13:00:00 21.4 13 Oeste 26 Sudoeste 0 -- -- 48
2020-10-28 12:00:00 19.6 14 Oeste 31 Sudoeste 0 -- -- 53
2020-10-28 11:00:00 19.3 15 Oeste 31 Oeste 0 -- -- 54
2020-10-28 10:00:00 17 12 Oeste 22 Oeste 0 -- -- 57
2020-10-28 09:00:00 14.7 10 Oeste 19 Oeste 0 -- -- 63
2020-10-28 08:00:00 12.3 9 Sudoeste 24 Oeste 0 -- -- 69
2020-10-28 07:00:00 12.4 10 Oeste 29 Oeste 0 -- -- 68
2020-10-28 06:00:00 12.8 18 Oeste 32 Oeste 0 -- -- 67
2020-10-28 05:00:00 12.9 18 Oeste 32 Oeste 0 -- -- 67
2020-10-28 04:00:00 12.8 15 Oeste 42 Oeste 0 -- -- 64
2020-10-28 03:00:00 12.4 21 Oeste 39 Oeste 0 -- -- 67
2020-10-28 02:00:00 12.7 18 Oeste 37 Oeste 0 -- -- 66
2020-10-28 01:00:00 12.7 18 Oeste 36 Oeste 0 -- -- 66
2020-10-28 00:00:00 13.4 23 Oeste 43 Oeste 0 -- -- 63
2020-10-27 23:00:00 13.2 23 Oeste 39 Oeste 0 -- -- 61
2020-10-27 22:00:00 14.2 17 Oeste 43 Oeste 0 -- -- 56
2020-10-27 21:00:00 14 17 Oeste 32 Oeste 0 -- -- 54
2020-10-27 20:00:00 12.9 12 Noroeste 21 Noroeste 0 -- -- 53
2020-10-27 19:00:00 12.2 7 Oeste 13 Oeste 0 -- -- 56
2020-10-27 18:00:00 13.2 5 Oeste 27 Oeste 0 -- -- 54
2020-10-27 17:00:00 15.9 12 Sudoeste 29 Oeste 0 -- -- 46
2020-10-27 16:00:00 17.1 15 Oeste 33 Oeste 0 -- -- 44
2020-10-27 15:00:00 16.4 18 Oeste 36 Sudoeste 0 -- -- 47
2020-10-27 14:00:00 14.1 14 Oeste 31 Sudoeste 0 -- -- 53
2020-10-27 13:00:00 12.4 15 Oeste 41 Oeste 0 -- -- 60
2020-10-27 12:00:00 11.3 18 Oeste 35 Oeste 0 -- -- 63
2020-10-27 11:00:00 11.8 13 Sudoeste 33 Oeste 0 -- -- 62
2020-10-27 10:00:00 11.9 15 Oeste 34 Oeste 0 -- -- 61
2020-10-27 09:00:00 10.5 17 Oeste 31 Oeste 0 -- -- 65
2020-10-27 08:00:00 10.1 13 Oeste 32 Sudoeste 0 -- -- 66
2020-10-27 07:00:00 9.3 15 Oeste 30 Oeste 0 -- -- 69
2020-10-27 06:00:00 8.9 16 Oeste 36 Oeste 0 -- -- 71
2020-10-27 05:00:00 8.5 14 Oeste 32 Oeste 0 -- -- 74
2020-10-27 04:00:00 8.9 13 Oeste 32 Oeste 0 -- -- 73
2020-10-27 03:00:00 9.9 14 Noroeste 37 Oeste 0 -- -- 67
2020-10-27 02:00:00 10.4 19 Oeste 38 Oeste 0 -- -- 64
2020-10-27 01:00:00 10.9 23 Oeste 43 Oeste 0 -- -- 60
2020-10-27 00:00:00 10.9 19 Oeste 41 Noroeste 0 -- -- 59
2020-10-26 23:00:00 11.6 18 Oeste 43 Sudoeste 0 -- -- 53
2020-10-26 22:00:00 11.7 22 Oeste 48 Sudoeste 0 -- -- 53
2020-10-26 21:00:00 11.9 18 Oeste 48 Oeste 0 -- -- 52
2020-10-26 20:00:00 11.6 19 Oeste 43 Sudoeste 0 -- -- 57
2020-10-26 19:00:00 11.8 19 Oeste 46 Sudoeste 0 -- -- 58
2020-10-26 18:00:00 12.6 19 Oeste 51 Oeste 0 -- -- 55
2020-10-26 17:00:00 14 26 Oeste 53 Sudoeste 0 -- -- 51
2020-10-26 16:00:00 15.2 24 Oeste 46 Oeste 0 -- -- 50
2020-10-26 15:00:00 15.6 23 Oeste 45 Oeste 0 -- -- 49
2020-10-26 14:00:00 15.6 23 Oeste 52 Oeste 0 -- -- 50
2020-10-26 13:00:00 13.5 26 Oeste 57 Oeste 0 -- -- 55
2020-10-26 12:00:00 12.3 31 Oeste 64 Oeste 0 -- -- 58
2020-10-26 11:00:00 14 27 Oeste 48 Oeste 0 -- -- 53
2020-10-26 10:00:00 12.3 23 Oeste 51 Sudoeste 0 -- -- 59
2020-10-26 09:00:00 10.3 31 Oeste 58 Oeste 0 -- -- 65
2020-10-26 08:00:00 8.9 28 Oeste 48 Oeste 0 -- -- 73
2020-10-26 07:00:00 9.1 18 Oeste 36 Noroeste 0 -- -- 73
2020-10-26 06:00:00 9.5 13 Oeste 31 Oeste 0 -- -- 80
2020-10-26 05:00:00 10.9 14 Oeste 33 Sudoeste 0 -- -- 79
2020-10-26 04:00:00 11.5 15 Oeste 33 Oeste 0 -- -- 82
2020-10-26 03:00:00 11.5 16 Oeste 33 Oeste 0 -- -- 84
2020-10-26 02:00:00 11.5 19 Oeste 36 Oeste 0.2 -- -- 87
2020-10-26 01:00:00 12.5 11 Oeste 43 Oeste 0 -- -- 83
2020-10-26 00:00:00 12.7 4 Oeste 12 Oeste 0 -- -- 79
2020-10-25 23:00:00 11.2 9 Oeste 12 Oeste 0 -- -- 80
2020-10-25 22:00:00 11.1 2 Norte 9 Oeste 0 -- -- 80
2020-10-25 21:00:00 12.3 5 Oeste 11 Oeste 0 -- -- 76
2020-10-25 20:00:00 12.4 10 Oeste 13 Oeste 0 -- -- 76
2020-10-25 19:00:00 12.5 8 Oeste 10 Oeste 0 -- -- 82
2020-10-25 18:00:00 14.5 0 Calma 7 Sudeste 0 -- -- 75
2020-10-25 17:00:00 17.4 4 Este 15 Nordeste 0 -- -- 63
2020-10-25 16:00:00 20.5 5 Oeste 19 Oeste 0 -- -- 44
2020-10-25 15:00:00 20.8 12 Oeste 30 Oeste 0 -- -- 43
2020-10-25 14:00:00 20.7 19 Oeste 47 Oeste 0 -- -- 42
2020-10-25 13:00:00 20.4 26 Oeste 48 Sudoeste 0 -- -- 43
2020-10-25 12:00:00 19 22 Oeste 46 Oeste 0 -- -- 48
2020-10-25 11:00:00 17.3 26 Oeste 44 Oeste 0 -- -- 52
2020-10-25 10:00:00 16.2 22 Oeste 45 Oeste 0 -- -- 57
2020-10-25 09:00:00 14.6 22 Oeste 42 Noroeste 0 -- -- 61
2020-10-25 08:00:00 13.9 22 Oeste 44 Noroeste 0 -- -- 63
2020-10-25 07:00:00 13.7 26 Oeste 47 Oeste 0 -- -- 63
2020-10-25 06:00:00 13.5 19 Oeste 39 Oeste 0 -- -- 64
2020-10-25 05:00:00 13.6 19 Oeste 41 Oeste 0 -- -- 65
2020-10-25 04:00:00 13.2 19 Oeste 37 Oeste 0 -- -- 67
2020-10-25 03:00:00 13.5 18 Oeste 43 Oeste 0 -- -- 64
2020-10-25 02:00:00 13.6 19 Oeste 35 Oeste 0 -- -- 63
2020-10-25 01:00:00 11.8 8 Oeste 13 Noroeste 0 -- -- 71
2020-10-25 00:00:00 10.6 8 Sudoeste 13 Oeste 0 -- -- 77